<?xml version="1.0" encoding="UTF-8" standalone="no" ?>
<gpx xmlns="http://www.topografix.com/GPX/1/1" xmlns:xsi="http://www.w3.org/2001/XMLSchema-instance" xsi:schemaLocation="http://www.topografix.com/GPX/1/1 http://www.topografix.com/GPX/1/1/gpx.xsd" version="1.1" creator="VisuGPX - https://www.visugpx.com">
  <metadata>
    <name>La Croix de TARADEAU</name>
    <desc><![CDATA[Courte randonnée qui permet d'admirer le point de vue à la croix et les restes de l'Oppidum.]]></desc>
  </metadata>
  <wpt lat="43.45324" lon="6.43424">
    <ele>156</ele>
    <name><![CDATA[Parking près du cimetière]]></name>
  </wpt>
  <wpt lat="43.45725" lon="6.4419">
    <ele>151</ele>
    <name><![CDATA[À gauche à la fourche]]></name>
  </wpt>
  <wpt lat="43.46196" lon="6.43804">
    <ele>201</ele>
    <name><![CDATA[À gauche le Chemin des Puits]]></name>
  </wpt>
  <wpt lat="43.46473" lon="6.43223">
    <ele>206</ele>
    <name><![CDATA[À gauche le long de la RD 73]]></name>
  </wpt>
  <wpt lat="43.46216" lon="6.43235">
    <ele>219</ele>
    <name><![CDATA[Chemin vers le Jas de Mège]]></name>
  </wpt>
  <wpt lat="43.45554" lon="6.43719">
    <ele>240</ele>
    <name><![CDATA[Vous pouvez visiter l'OPPIDUM]]></name>
  </wpt>
  <wpt lat="43.45472" lon="6.4385">
    <ele>235</ele>
    <name><![CDATA[Superbe panorama à la Croix de Taradeau]]></name>
  </wpt>
  <wpt lat="43.45547" lon="6.43743">
    <ele>240</ele>
    <name><![CDATA[À droite la piste qui descend ]]></name>
  </wpt>
  <wpt lat="43.45957" lon="6.44021">
    <ele>172</ele>
    <name><![CDATA[Prendre à droite à la montée et à la descente.]]></name>
  </wpt>
  <wpt lat="43.45333" lon="6.43434">
    <ele>159</ele>
    <name><![CDATA[Retour au Parking.]]></name>
  </wpt>
  <trk>
    <name><![CDATA[La Croix de Taradeau]]></name>
    <trkseg>
      <trkpt lat="43.45324" lon="6.43424">
        <ele>156</ele>
        <time>2019-03-22T16:45:35+01:00</time>
      </trkpt>
      <trkpt lat="43.4532" lon="6.43446">
        <ele>156</ele>
        <time>2019-03-22T16:45:40+01:00</time>
      </trkpt>
      <trkpt lat="43.45329" lon="6.43502">
        <ele>166</ele>
        <time>2019-03-22T16:45:45+01:00</time>
      </trkpt>
      <trkpt lat="43.45338" lon="6.43522">
        <ele>169</ele>
        <time>2019-03-22T16:45:50+01:00</time>
      </trkpt>
      <trkpt lat="43.4534" lon="6.43543">
        <ele>169</ele>
        <time>2019-03-22T16:45:55+01:00</time>
      </trkpt>
      <trkpt lat="43.45341" lon="6.43592">
        <ele>168</ele>
        <time>2019-03-22T16:46:00+01:00</time>
      </trkpt>
      <trkpt lat="43.45327" lon="6.43687">
        <ele>163</ele>
        <time>2019-03-22T16:46:05+01:00</time>
      </trkpt>
      <trkpt lat="43.45325" lon="6.43709">
        <ele>162</ele>
        <time>2019-03-22T16:46:10+01:00</time>
      </trkpt>
      <trkpt lat="43.45324" lon="6.43745">
        <ele>161</ele>
        <time>2019-03-22T16:46:15+01:00</time>
      </trkpt>
      <trkpt lat="43.45314" lon="6.43825">
        <ele>158</ele>
        <time>2019-03-22T16:46:20+01:00</time>
      </trkpt>
      <trkpt lat="43.45327" lon="6.43874">
        <ele>161</ele>
        <time>2019-03-22T16:46:25+01:00</time>
      </trkpt>
      <trkpt lat="43.45367" lon="6.43948">
        <ele>167</ele>
        <time>2019-03-22T16:46:30+01:00</time>
      </trkpt>
      <trkpt lat="43.45387" lon="6.43977">
        <ele>171</ele>
        <time>2019-03-22T16:46:35+01:00</time>
      </trkpt>
      <trkpt lat="43.45408" lon="6.44024">
        <ele>170</ele>
        <time>2019-03-22T16:46:40+01:00</time>
      </trkpt>
      <trkpt lat="43.4543" lon="6.44059">
        <ele>169</ele>
        <time>2019-03-22T16:46:45+01:00</time>
      </trkpt>
      <trkpt lat="43.45517" lon="6.44095">
        <ele>168</ele>
        <time>2019-03-22T16:46:50+01:00</time>
      </trkpt>
      <trkpt lat="43.45554" lon="6.4411">
        <ele>162</ele>
        <time>2019-03-22T16:46:55+01:00</time>
      </trkpt>
      <trkpt lat="43.45631" lon="6.44117">
        <ele>150</ele>
        <time>2019-03-22T16:47:00+01:00</time>
      </trkpt>
      <trkpt lat="43.45667" lon="6.44098">
        <ele>156</ele>
        <time>2019-03-22T16:47:05+01:00</time>
      </trkpt>
      <trkpt lat="43.45703" lon="6.44148">
        <ele>156</ele>
        <time>2019-03-22T16:47:10+01:00</time>
      </trkpt>
      <trkpt lat="43.45725" lon="6.4419">
        <ele>151</ele>
        <time>2019-03-22T16:47:15+01:00</time>
      </trkpt>
      <trkpt lat="43.45749" lon="6.44197">
        <ele>152</ele>
        <time>2019-03-22T16:47:20+01:00</time>
      </trkpt>
      <trkpt lat="43.45769" lon="6.44198">
        <ele>152</ele>
        <time>2019-03-22T16:47:25+01:00</time>
      </trkpt>
      <trkpt lat="43.45821" lon="6.4418">
        <ele>157</ele>
        <time>2019-03-22T16:47:30+01:00</time>
      </trkpt>
      <trkpt lat="43.45895" lon="6.44118">
        <ele>163</ele>
        <time>2019-03-22T16:47:35+01:00</time>
      </trkpt>
      <trkpt lat="43.45953" lon="6.44044">
        <ele>169</ele>
        <time>2019-03-22T16:47:40+01:00</time>
      </trkpt>
      <trkpt lat="43.45961" lon="6.44024">
        <ele>171</ele>
        <time>2019-03-22T16:47:45+01:00</time>
      </trkpt>
      <trkpt lat="43.45968" lon="6.44004">
        <ele>173</ele>
        <time>2019-03-22T16:47:50+01:00</time>
      </trkpt>
      <trkpt lat="43.45973" lon="6.43997">
        <ele>173</ele>
        <time>2019-03-22T16:47:55+01:00</time>
      </trkpt>
      <trkpt lat="43.45974" lon="6.43991">
        <ele>173</ele>
        <time>2019-03-22T16:48:00+01:00</time>
      </trkpt>
      <trkpt lat="43.45978" lon="6.43987">
        <ele>174</ele>
        <time>2019-03-22T16:48:05+01:00</time>
      </trkpt>
      <trkpt lat="43.45985" lon="6.43964">
        <ele>176</ele>
        <time>2019-03-22T16:48:10+01:00</time>
      </trkpt>
      <trkpt lat="43.45993" lon="6.43909">
        <ele>183</ele>
        <time>2019-03-22T16:48:15+01:00</time>
      </trkpt>
      <trkpt lat="43.46006" lon="6.43903">
        <ele>182</ele>
        <time>2019-03-22T16:48:20+01:00</time>
      </trkpt>
      <trkpt lat="43.46025" lon="6.43889">
        <ele>181</ele>
        <time>2019-03-22T16:48:25+01:00</time>
      </trkpt>
      <trkpt lat="43.46066" lon="6.43814">
        <ele>190</ele>
        <time>2019-03-22T16:48:30+01:00</time>
      </trkpt>
      <trkpt lat="43.46091" lon="6.43756">
        <ele>193</ele>
        <time>2019-03-22T16:48:35+01:00</time>
      </trkpt>
      <trkpt lat="43.46125" lon="6.4373">
        <ele>193</ele>
        <time>2019-03-22T16:48:40+01:00</time>
      </trkpt>
      <trkpt lat="43.46152" lon="6.43755">
        <ele>193</ele>
        <time>2019-03-22T16:48:45+01:00</time>
      </trkpt>
      <trkpt lat="43.46167" lon="6.43782">
        <ele>199</ele>
        <time>2019-03-22T16:48:50+01:00</time>
      </trkpt>
      <trkpt lat="43.46179" lon="6.43809">
        <ele>201</ele>
        <time>2019-03-22T16:48:55+01:00</time>
      </trkpt>
      <trkpt lat="43.46196" lon="6.43804">
        <ele>201</ele>
        <time>2019-03-22T16:49:00+01:00</time>
      </trkpt>
      <trkpt lat="43.46213" lon="6.43757">
        <ele>201</ele>
        <time>2019-03-22T16:49:05+01:00</time>
      </trkpt>
      <trkpt lat="43.46248" lon="6.43671">
        <ele>202</ele>
        <time>2019-03-22T16:49:10+01:00</time>
      </trkpt>
      <trkpt lat="43.46279" lon="6.43606">
        <ele>202</ele>
        <time>2019-03-22T16:49:15+01:00</time>
      </trkpt>
      <trkpt lat="43.46411" lon="6.43388">
        <ele>203</ele>
        <time>2019-03-22T16:49:20+01:00</time>
      </trkpt>
      <trkpt lat="43.46439" lon="6.43296">
        <ele>204</ele>
        <time>2019-03-22T16:49:25+01:00</time>
      </trkpt>
      <trkpt lat="43.46476" lon="6.43255">
        <ele>202</ele>
        <time>2019-03-22T16:49:30+01:00</time>
      </trkpt>
      <trkpt lat="43.46473" lon="6.43223">
        <ele>206</ele>
        <time>2019-03-22T16:49:35+01:00</time>
      </trkpt>
      <trkpt lat="43.46433" lon="6.43236">
        <ele>209</ele>
        <time>2019-03-22T16:49:40+01:00</time>
      </trkpt>
      <trkpt lat="43.46362" lon="6.4325">
        <ele>212</ele>
        <time>2019-03-22T16:49:45+01:00</time>
      </trkpt>
      <trkpt lat="43.46273" lon="6.43251">
        <ele>217</ele>
        <time>2019-03-22T16:49:50+01:00</time>
      </trkpt>
      <trkpt lat="43.46216" lon="6.43235">
        <ele>219</ele>
        <time>2019-03-22T16:49:55+01:00</time>
      </trkpt>
      <trkpt lat="43.46196" lon="6.43334">
        <ele>220</ele>
        <time>2019-03-22T16:50:00+01:00</time>
      </trkpt>
      <trkpt lat="43.46144" lon="6.43371">
        <ele>224</ele>
        <time>2019-03-22T16:50:05+01:00</time>
      </trkpt>
      <trkpt lat="43.46129" lon="6.43373">
        <ele>225</ele>
        <time>2019-03-22T16:50:10+01:00</time>
      </trkpt>
      <trkpt lat="43.46115" lon="6.43374">
        <ele>227</ele>
        <time>2019-03-22T16:50:15+01:00</time>
      </trkpt>
      <trkpt lat="43.46039" lon="6.43329">
        <ele>230</ele>
        <time>2019-03-22T16:50:20+01:00</time>
      </trkpt>
      <trkpt lat="43.46027" lon="6.43326">
        <ele>230</ele>
        <time>2019-03-22T16:50:25+01:00</time>
      </trkpt>
      <trkpt lat="43.46009" lon="6.43328">
        <ele>230</ele>
        <time>2019-03-22T16:50:30+01:00</time>
      </trkpt>
      <trkpt lat="43.45986" lon="6.43324">
        <ele>230</ele>
        <time>2019-03-22T16:50:35+01:00</time>
      </trkpt>
      <trkpt lat="43.45972" lon="6.43366">
        <ele>230</ele>
        <time>2019-03-22T16:50:40+01:00</time>
      </trkpt>
      <trkpt lat="43.45972" lon="6.43397">
        <ele>230</ele>
        <time>2019-03-22T16:50:45+01:00</time>
      </trkpt>
      <trkpt lat="43.45968" lon="6.43431">
        <ele>230</ele>
        <time>2019-03-22T16:50:50+01:00</time>
      </trkpt>
      <trkpt lat="43.45967" lon="6.43447">
        <ele>230</ele>
        <time>2019-03-22T16:50:55+01:00</time>
      </trkpt>
      <trkpt lat="43.45974" lon="6.43468">
        <ele>230</ele>
        <time>2019-03-22T16:51:00+01:00</time>
      </trkpt>
      <trkpt lat="43.45972" lon="6.43479">
        <ele>230</ele>
        <time>2019-03-22T16:51:05+01:00</time>
      </trkpt>
      <trkpt lat="43.45886" lon="6.43571">
        <ele>233</ele>
        <time>2019-03-22T16:51:10+01:00</time>
      </trkpt>
      <trkpt lat="43.45833" lon="6.43623">
        <ele>239</ele>
        <time>2019-03-22T16:51:15+01:00</time>
      </trkpt>
      <trkpt lat="43.45799" lon="6.4365">
        <ele>240</ele>
        <time>2019-03-22T16:51:20+01:00</time>
      </trkpt>
      <trkpt lat="43.45776" lon="6.43665">
        <ele>240</ele>
        <time>2019-03-22T16:51:25+01:00</time>
      </trkpt>
      <trkpt lat="43.45759" lon="6.43672">
        <ele>240</ele>
        <time>2019-03-22T16:51:30+01:00</time>
      </trkpt>
      <trkpt lat="43.45718" lon="6.43657">
        <ele>240</ele>
        <time>2019-03-22T16:51:35+01:00</time>
      </trkpt>
      <trkpt lat="43.45667" lon="6.43652">
        <ele>240</ele>
        <time>2019-03-22T16:51:40+01:00</time>
      </trkpt>
      <trkpt lat="43.45649" lon="6.43658">
        <ele>240</ele>
        <time>2019-03-22T16:51:45+01:00</time>
      </trkpt>
      <trkpt lat="43.45554" lon="6.43719">
        <ele>240</ele>
        <time>2019-03-22T16:51:50+01:00</time>
      </trkpt>
      <trkpt lat="43.45539" lon="6.43671">
        <ele>241</ele>
        <time>2019-03-22T16:51:55+01:00</time>
      </trkpt>
      <trkpt lat="43.4557" lon="6.43599">
        <ele>238</ele>
        <time>2019-03-22T16:52:00+01:00</time>
      </trkpt>
      <trkpt lat="43.45541" lon="6.43581">
        <ele>238</ele>
        <time>2019-03-22T16:52:05+01:00</time>
      </trkpt>
      <trkpt lat="43.45505" lon="6.43595">
        <ele>238</ele>
        <time>2019-03-22T16:52:10+01:00</time>
      </trkpt>
      <trkpt lat="43.45531" lon="6.4363">
        <ele>241</ele>
        <time>2019-03-22T16:52:15+01:00</time>
      </trkpt>
      <trkpt lat="43.45537" lon="6.43679">
        <ele>242</ele>
        <time>2019-03-22T16:52:20+01:00</time>
      </trkpt>
      <trkpt lat="43.45549" lon="6.43722">
        <ele>241</ele>
        <time>2019-03-22T16:52:25+01:00</time>
      </trkpt>
      <trkpt lat="43.45512" lon="6.43768">
        <ele>246</ele>
        <time>2019-03-22T16:52:30+01:00</time>
      </trkpt>
      <trkpt lat="43.45483" lon="6.43826">
        <ele>241</ele>
        <time>2019-03-22T16:52:35+01:00</time>
      </trkpt>
      <trkpt lat="43.45472" lon="6.4385">
        <ele>235</ele>
        <time>2019-03-22T16:52:40+01:00</time>
      </trkpt>
      <trkpt lat="43.45502" lon="6.43785">
        <ele>248</ele>
        <time>2019-03-22T16:52:45+01:00</time>
      </trkpt>
      <trkpt lat="43.45526" lon="6.43755">
        <ele>245</ele>
        <time>2019-03-22T16:52:50+01:00</time>
      </trkpt>
      <trkpt lat="43.45547" lon="6.43743">
        <ele>240</ele>
        <time>2019-03-22T16:52:55+01:00</time>
      </trkpt>
      <trkpt lat="43.45574" lon="6.43731">
        <ele>237</ele>
        <time>2019-03-22T16:53:00+01:00</time>
      </trkpt>
      <trkpt lat="43.45613" lon="6.43723">
        <ele>233</ele>
        <time>2019-03-22T16:53:05+01:00</time>
      </trkpt>
      <trkpt lat="43.45643" lon="6.43723">
        <ele>230</ele>
        <time>2019-03-22T16:53:10+01:00</time>
      </trkpt>
      <trkpt lat="43.45667" lon="6.43734">
        <ele>227</ele>
        <time>2019-03-22T16:53:15+01:00</time>
      </trkpt>
      <trkpt lat="43.45688" lon="6.43752">
        <ele>224</ele>
        <time>2019-03-22T16:53:20+01:00</time>
      </trkpt>
      <trkpt lat="43.45723" lon="6.43815">
        <ele>215</ele>
        <time>2019-03-22T16:53:25+01:00</time>
      </trkpt>
      <trkpt lat="43.45746" lon="6.4388">
        <ele>211</ele>
        <time>2019-03-22T16:53:30+01:00</time>
      </trkpt>
      <trkpt lat="43.45749" lon="6.4394">
        <ele>206</ele>
        <time>2019-03-22T16:53:35+01:00</time>
      </trkpt>
      <trkpt lat="43.45741" lon="6.43977">
        <ele>200</ele>
        <time>2019-03-22T16:53:40+01:00</time>
      </trkpt>
      <trkpt lat="43.45742" lon="6.44011">
        <ele>196</ele>
        <time>2019-03-22T16:53:45+01:00</time>
      </trkpt>
      <trkpt lat="43.4576" lon="6.44062">
        <ele>193</ele>
        <time>2019-03-22T16:53:50+01:00</time>
      </trkpt>
      <trkpt lat="43.45784" lon="6.44092">
        <ele>189</ele>
        <time>2019-03-22T16:53:55+01:00</time>
      </trkpt>
      <trkpt lat="43.4586" lon="6.44089">
        <ele>181</ele>
        <time>2019-03-22T16:54:00+01:00</time>
      </trkpt>
      <trkpt lat="43.45895" lon="6.44077">
        <ele>176</ele>
        <time>2019-03-22T16:54:05+01:00</time>
      </trkpt>
      <trkpt lat="43.45924" lon="6.44058">
        <ele>172</ele>
        <time>2019-03-22T16:54:10+01:00</time>
      </trkpt>
      <trkpt lat="43.45957" lon="6.44021">
        <ele>172</ele>
        <time>2019-03-22T16:54:15+01:00</time>
      </trkpt>
      <trkpt lat="43.4596" lon="6.4403">
        <ele>170</ele>
        <time>2019-03-22T16:54:20+01:00</time>
      </trkpt>
      <trkpt lat="43.45939" lon="6.44063">
        <ele>167</ele>
        <time>2019-03-22T16:54:25+01:00</time>
      </trkpt>
      <trkpt lat="43.45898" lon="6.44117">
        <ele>163</ele>
        <time>2019-03-22T16:54:30+01:00</time>
      </trkpt>
      <trkpt lat="43.45823" lon="6.44179">
        <ele>157</ele>
        <time>2019-03-22T16:54:35+01:00</time>
      </trkpt>
      <trkpt lat="43.45765" lon="6.44197">
        <ele>152</ele>
        <time>2019-03-22T16:54:40+01:00</time>
      </trkpt>
      <trkpt lat="43.45728" lon="6.44191">
        <ele>151</ele>
        <time>2019-03-22T16:54:45+01:00</time>
      </trkpt>
      <trkpt lat="43.45668" lon="6.44092">
        <ele>158</ele>
        <time>2019-03-22T16:54:50+01:00</time>
      </trkpt>
      <trkpt lat="43.45634" lon="6.44114">
        <ele>150</ele>
        <time>2019-03-22T16:54:55+01:00</time>
      </trkpt>
      <trkpt lat="43.45594" lon="6.44114">
        <ele>156</ele>
        <time>2019-03-22T16:55:00+01:00</time>
      </trkpt>
      <trkpt lat="43.45502" lon="6.44088">
        <ele>170</ele>
        <time>2019-03-22T16:55:05+01:00</time>
      </trkpt>
      <trkpt lat="43.45424" lon="6.44047">
        <ele>171</ele>
        <time>2019-03-22T16:55:10+01:00</time>
      </trkpt>
      <trkpt lat="43.45412" lon="6.44038">
        <ele>168</ele>
        <time>2019-03-22T16:55:15+01:00</time>
      </trkpt>
      <trkpt lat="43.45391" lon="6.43987">
        <ele>171</ele>
        <time>2019-03-22T16:55:20+01:00</time>
      </trkpt>
      <trkpt lat="43.45345" lon="6.43908">
        <ele>165</ele>
        <time>2019-03-22T16:55:25+01:00</time>
      </trkpt>
      <trkpt lat="43.45326" lon="6.43865">
        <ele>161</ele>
        <time>2019-03-22T16:55:30+01:00</time>
      </trkpt>
      <trkpt lat="43.45315" lon="6.43821">
        <ele>158</ele>
        <time>2019-03-22T16:55:35+01:00</time>
      </trkpt>
      <trkpt lat="43.45323" lon="6.43756">
        <ele>161</ele>
        <time>2019-03-22T16:55:40+01:00</time>
      </trkpt>
      <trkpt lat="43.45333" lon="6.43658">
        <ele>165</ele>
        <time>2019-03-22T16:55:45+01:00</time>
      </trkpt>
      <trkpt lat="43.45344" lon="6.43562">
        <ele>170</ele>
        <time>2019-03-22T16:55:50+01:00</time>
      </trkpt>
      <trkpt lat="43.45321" lon="6.43454">
        <ele>157</ele>
        <time>2019-03-22T16:55:55+01:00</time>
      </trkpt>
      <trkpt lat="43.45325" lon="6.43433">
        <ele>157</ele>
        <time>2019-03-22T16:56:00+01:00</time>
      </trkpt>
      <trkpt lat="43.4533" lon="6.43429">
        <ele>158</ele>
        <time>2019-03-22T16:56:05+01:00</time>
      </trkpt>
      <trkpt lat="43.45338" lon="6.43434">
        <ele>159</ele>
        <time>2019-03-22T16:56:10+01:00</time>
      </trkpt>
      <trkpt lat="43.45333" lon="6.43434">
        <ele>159</ele>
        <time>2019-03-22T16:56:15+01:00</time>
      </trkpt>
    </trkseg>
  </trk>
</gpx>